SCIP

Mataveri Airport

Airport
ICAO code
SCIP
IATA Code
IPC
Summary
ICAO Region
CARSAM
ICAO Territory
Location

Hanga Roa, Valparaiso

Serving
Easter Island
Elevation
227 ft
Coordinates
27° 9' 53" S , 109° 25' 19" W
KCC
Af
Metar
Observation
SCIP 131400Z 15013KT 9999 -SHRA FEW007 BKN020 16/14 Q1028 RESHRA NOSIG
Station
Isla De Pascua
Date/Time
2022-08-13 14:00:00
Wind direction
150°
Wind speed
13 kts
Lowest cloud amount
few clouds
Temperature
16°C
Dew point
14°C
Humidity
87%
QNH
1028 hPa
Weather condition
light showers rain

International airport serving Easter Island.

Climatology

Tropical rainforest climate (Köppen climate classification Af)

Runways

Designator Length Width Surface Rops
10/28 3300 45 ASP Yes/Yes

Airport map

Aerial View

SKYbrary Partners:

Safety knowledge contributed by: